Time;durP1;ratioP1;P1;durP2;ratioP2;P2;SDS_P1;SDS_P2;PMS_P1;PMS_P2;Temp;Humidity;BMP_temperature;BMP_pressure;BME280_temperature;BME280_humidity;BME280_pressure;Samples;Min_cycle;Max_cycle;Signal;HPM_P1;HPM_P2
2022/12/22 03:28:13;;;;;;;11.05;3.92;;;4.00;99.90;;;;;;5093975;28;20117;-63
2022/12/22 03:30:40;;;;;;;10.95;5.05;;;4.00;99.90;;;;;;5088622;28;20482;-63
2022/12/22 03:33:06;;;;;;;8.77;4.88;;;4.00;99.90;;;;;;5101285;28;20134;-63
2022/12/22 03:35:33;;;;;;;11.38;4.95;;;4.00;99.90;;;;;;5096477;28;20138;-63
2022/12/22 03:38:02;;;;;;;9.88;5.15;;;4.00;99.90;;;;;;5089273;28;20048;-64
2022/12/22 03:40:30;;;;;;;11.18;4.85;;;4.00;99.90;;;;;;5096347;28;20104;-63
2022/12/22 03:48:28;;;;;;;12.00;5.30;;;4.10;99.90;;;;;;5099862;28;20103;-64
2022/12/22 03:50:54;;;;;;;10.10;3.92;;;4.10;99.90;;;;;;5097467;28;20131;-69
2022/12/22 03:53:21;;;;;;;8.38;4.38;;;4.10;99.90;;;;;;5095558;28;20042;-63
2022/12/22 03:55:48;;;;;;;10.80;3.42;;;4.10;99.90;;;;;;5093504;28;20066;-65
2022/12/22 03:58:15;;;;;;;7.60;4.55;;;4.10;99.90;;;;;;5093879;28;20159;-63
2022/12/22 04:00:42;;;;;;;9.50;5.18;;;4.20;99.90;;;;;;5094567;28;20164;-64
2022/12/22 04:03:09;;;;;;;6.78;3.85;;;4.20;99.90;;;;;;5100522;28;20079;-63
2022/12/22 04:05:36;;;;;;;9.57;4.13;;;4.20;99.90;;;;;;5100870;28;20067;-63
2022/12/22 04:08:03;;;;;;;9.52;4.75;;;4.20;99.90;;;;;;5100637;28;20050;-64
2022/12/22 04:13:15;;;;;;;8.23;4.63;;;4.20;99.90;;;;;;5099947;28;20079;-65
2022/12/22 04:15:42;;;;;;;11.88;4.45;;;4.30;99.90;;;;;;5106761;28;20036;-62
2022/12/22 04:18:09;;;;;;;12.20;4.47;;;4.30;99.90;;;;;;5097415;28;20375;-63
2022/12/22 04:20:36;;;;;;;10.02;3.80;;;4.30;99.90;;;;;;5099080;28;20047;-65
2022/12/22 04:23:03;;;;;;;7.85;4.20;;;4.30;99.90;;;;;;5093125;28;20048;-63
2022/12/22 04:25:30;;;;;;;16.02;5.07;;;4.30;99.90;;;;;;5102860;28;20442;-64
2022/12/22 04:27:57;;;;;;;12.60;4.78;;;4.30;99.90;;;;;;5097974;28;20051;-63
2022/12/22 04:30:24;;;;;;;10.02;3.95;;;4.30;99.90;;;;;;5103334;28;20040;-63
2022/12/22 04:32:51;;;;;;;8.18;4.32;;;4.40;99.90;;;;;;5098006;28;20058;-63
2022/12/22 04:35:18;;;;;;;11.43;4.80;;;4.30;99.90;;;;;;5104822;28;20059;-64
2022/12/22 04:37:45;;;;;;;14.93;5.22;;;4.40;99.90;;;;;;5097685;28;20052;-63
2022/12/22 04:40:11;;;;;;;9.27;4.55;;;4.40;99.90;;;;;;5099154;28;20058;-63
2022/12/22 04:42:38;;;;;;;6.20;4.28;;;4.40;99.90;;;;;;5100494;28;20170;-65
2022/12/22 04:45:06;;;;;;;8.23;5.32;;;4.40;99.90;;;;;;5103484;28;20142;-63
2022/12/22 04:47:33;;;;;;;6.45;4.15;;;4.40;99.90;;;;;;5099342;28;20082;-64
2022/12/22 04:49:59;;;;;;;6.18;4.03;;;4.40;99.90;;;;;;5095153;28;20056;-64
2022/12/22 04:52:26;;;;;;;4.70;3.10;;;4.40;99.90;;;;;;5099450;28;20052;-61
2022/12/22 04:54:53;;;;;;;8.70;3.92;;;4.40;99.90;;;;;;5099031;28;20051;-63
2022/12/22 04:57:20;;;;;;;10.02;3.70;;;4.40;99.90;;;;;;5106219;28;20044;-61
2022/12/22 04:59:47;;;;;;;6.97;3.55;;;4.40;99.90;;;;;;5095680;28;20053;-62
2022/12/22 05:02:14;;;;;;;6.43;3.75;;;4.40;99.90;;;;;;5095584;28;20138;-61
2022/12/22 05:04:41;;;;;;;6.72;3.47;;;4.40;99.90;;;;;;5100749;28;20378;-62
2022/12/22 05:07:08;;;;;;;12.50;4.68;;;4.40;99.90;;;;;;5097530;28;20097;-63
2022/12/22 05:09:35;;;;;;;8.32;4.60;;;4.40;99.90;;;;;;5102028;28;20050;-61
2022/12/22 05:12:53;;;;;;;10.82;5.53;;;4.40;99.90;;;;;;5103347;28;20118;-62
2022/12/22 05:14:49;;;;;;;4.88;3.38;;;4.40;99.90;;;;;;5096596;28;20532;-62
2022/12/22 05:17:16;;;;;;;8.30;3.55;;;4.40;99.90;;;;;;5104423;28;20051;-61
2022/12/22 05:19:43;;;;;;;10.25;4.47;;;4.40;99.90;;;;;;5100525;28;20130;-62
2022/12/22 05:22:10;;;;;;;6.43;3.10;;;4.40;99.90;;;;;;5101654;28;20884;-61
2022/12/22 05:24:36;;;;;;;8.35;3.78;;;4.40;99.90;;;;;;5094969;28;20067;-61
2022/12/22 05:27:03;;;;;;;5.13;2.85;;;4.50;99.90;;;;;;5101950;28;20489;-63
2022/12/22 05:29:30;;;;;;;9.10;3.80;;;4.50;99.90;;;;;;5098640;28;20047;-62
2022/12/22 05:31:57;;;;;;;8.38;3.67;;;4.50;99.90;;;;;;5103776;28;20432;-63
2022/12/22 05:34:24;;;;;;;10.25;4.75;;;4.60;99.90;;;;;;5092569;28;20054;-65
2022/12/22 05:36:51;;;;;;;5.10;4.10;;;4.60;99.90;;;;;;5097845;28;20044;-63
2022/12/22 05:39:18;;;;;;;4.85;3.63;;;4.60;99.90;;;;;;5101920;28;20186;-63
2022/12/22 05:41:45;;;;;;;7.00;3.63;;;4.60;99.90;;;;;;5097187;28;20050;-63
2022/12/22 05:44:12;;;;;;;5.88;3.58;;;4.60;99.90;;;;;;5096256;28;20061;-63
2022/12/22 05:46:39;;;;;;;4.25;3.20;;;4.70;99.90;;;;;;5098066;28;20051;-63
2022/12/22 05:49:06;;;;;;;8.85;4.07;;;4.70;99.90;;;;;;5096223;28;20040;-63
2022/12/22 05:51:32;;;;;;;8.75;4.00;;;4.70;99.90;;;;;;5101869;28;20077;-63
2022/12/22 05:53:59;;;;;;;12.38;4.47;;;4.70;99.90;;;;;;5103138;28;20056;-64
2022/12/22 05:56:26;;;;;;;8.65;4.35;;;4.70;99.90;;;;;;5095195;28;20154;-64
2022/12/22 05:58:53;;;;;;;4.68;3.72;;;4.70;99.90;;;;;;5096762;28;20071;-63
2022/12/22 06:01:20;;;;;;;7.50;3.80;;;4.70;99.90;;;;;;5102086;28;20491;-63
2022/12/22 06:03:47;;;;;;;9.38;3.92;;;4.70;99.90;;;;;;5097319;28;20044;-63
2022/12/22 06:06:14;;;;;;;5.28;3.83;;;4.70;99.90;;;;;;5100547;28;20487;-62
2022/12/22 06:08:41;;;;;;;8.45;3.72;;;4.80;99.90;;;;;;5096777;28;20048;-63
2022/12/22 06:11:07;;;;;;;7.90;4.15;;;4.80;99.90;;;;;;5099054;28;20058;-63
2022/12/22 06:13:35;;;;;;;4.25;3.53;;;4.80;99.90;;;;;;5095938;28;20358;-63
2022/12/22 06:16:02;;;;;;;8.13;3.78;;;4.80;99.90;;;;;;5101313;28;20047;-63
2022/12/22 06:18:29;;;;;;;10.07;4.57;;;4.90;99.90;;;;;;5095113;28;20048;-64
2022/12/22 06:20:56;;;;;;;6.03;3.22;;;4.90;99.90;;;;;;5094416;28;22238;-63
2022/12/22 06:23:22;;;;;;;9.35;4.18;;;4.90;99.90;;;;;;5098170;28;20146;-64
2022/12/22 06:25:58;;;;;;;8.48;3.63;;;4.90;99.90;;;;;;5090493;28;20058;-64
2022/12/22 06:28:26;;;;;;;5.47;3.10;;;4.90;99.90;;;;;;5092190;28;20043;-64
2022/12/22 06:30:54;;;;;;;3.78;2.58;;;5.00;99.90;;;;;;5091619;28;20135;-63
2022/12/22 06:33:20;;;;;;;12.68;5.05;;;4.90;99.90;;;;;;5101565;28;20142;-64
2022/12/22 06:35:47;;;;;;;10.20;3.45;;;5.00;99.90;;;;;;5099777;28;20043;-65
2022/12/22 06:38:24;;;;;;;5.95;3.40;;;4.90;99.90;;;;;;5092710;27;20234;-63
2022/12/22 06:40:51;;;;;;;10.15;4.05;;;4.90;99.90;;;;;;5091719;28;20142;-65
2022/12/22 06:43:18;;;;;;;7.43;3.85;;;5.00;99.90;;;;;;5084172;28;20154;-63
2022/12/22 06:45:44;;;;;;;5.18;2.95;;;5.00;99.90;;;;;;5092759;28;20051;-66
2022/12/22 06:48:12;;;;;;;4.70;3.15;;;5.00;99.90;;;;;;5094288;28;20503;-64
2022/12/22 06:50:39;;;;;;;5.95;4.10;;;4.90;99.90;;;;;;5093318;28;20052;-63
2022/12/22 06:53:07;;;;;;;6.72;3.22;;;4.90;99.90;;;;;;5094922;28;20059;-64
2022/12/22 06:55:35;;;;;;;8.40;3.65;;;5.00;99.90;;;;;;5095878;28;20146;-64
2022/12/22 06:58:03;;;;;;;5.32;2.80;;;5.00;99.90;;;;;;5094411;28;20158;-64
2022/12/22 07:00:30;;;;;;;5.25;3.65;;;4.90;99.90;;;;;;5092936;28;20047;-64
2022/12/22 07:02:57;;;;;;;5.70;2.17;;;4.90;99.90;;;;;;5091088;28;20052;-63
2022/12/22 07:05:24;;;;;;;7.25;2.55;;;4.90;99.90;;;;;;5094204;28;20050;-64
2022/12/22 07:07:52;;;;;;;8.32;3.95;;;4.90;99.90;;;;;;5094695;27;20050;-63
2022/12/22 07:10:56;;;;;;;9.88;2.90;;;4.90;99.90;;;;;;5090883;28;20044;-64
2022/12/22 07:13:17;;;;;;;4.80;2.13;;;4.90;99.90;;;;;;5096084;27;20598;-64
2022/12/22 07:15:46;;;;;;;3.83;2.70;;;5.00;99.90;;;;;;5102913;28;20485;-64
2022/12/22 07:18:23;;;;;;;11.02;3.28;;;4.90;99.90;;;;;;5099272;28;20054;-64
2022/12/22 07:20:50;;;;;;;5.07;3.00;;;5.00;99.90;;;;;;5093803;28;20174;-64
2022/12/22 07:23:17;;;;;;;11.85;4.88;;;5.00;99.90;;;;;;5091250;28;20040;-64
2022/12/22 07:25:44;;;;;;;12.02;5.55;;;5.00;99.90;;;;;;5092991;28;20048;-65
2022/12/22 07:28:11;;;;;;;8.27;4.88;;;5.00;99.90;;;;;;5097160;28;20142;-63
2022/12/22 07:30:46;;;;;;;10.32;4.85;;;4.90;99.90;;;;;;5097010;28;20759;-64
2022/12/22 07:33:13;;;;;;;8.13;4.18;;;4.80;99.90;;;;;;5098827;28;20426;-63
2022/12/22 07:35:39;;;;;;;7.75;4.20;;;4.80;99.90;;;;;;5093392;28;20138;-64
2022/12/22 07:38:06;;;;;;;6.88;4.35;;;4.70;99.90;;;;;;5100362;28;20083;-64
2022/12/22 07:40:34;;;;;;;4.90;4.00;;;4.70;99.90;;;;;;5092025;28;20072;-64
2022/12/22 07:43:07;;;;;;;7.35;3.60;;;4.70;99.90;;;;;;5099781;28;20062;-65
2022/12/22 07:45:34;;;;;;;12.38;5.00;;;4.60;99.90;;;;;;5095872;28;20090;-65
2022/12/22 07:50:23;;;;;;;7.03;3.60;;;4.60;99.90;;;;;;5096876;28;20047;-63
2022/12/22 07:50:49;;;;;;;7.53;3.83;;;4.60;99.90;;;;;;5089770;28;20583;-66
2022/12/22 07:53:15;;;;;;;8.63;4.30;;;4.60;99.90;;;;;;5095843;28;20049;-64
2022/12/22 07:55:42;;;;;;;11.52;5.68;;;4.60;99.90;;;;;;5095737;28;20135;-63
2022/12/22 07:58:09;;;;;;;7.95;5.03;;;4.60;99.90;;;;;;5092314;28;21908;-69
2022/12/22 08:00:36;;;;;;;7.65;4.53;;;4.60;99.90;;;;;;5097206;28;20767;-65
2022/12/22 08:03:03;;;;;;;8.75;3.67;;;4.60;99.90;;;;;;5098374;28;20050;-64
2022/12/22 08:05:30;;;;;;;6.45;4.60;;;4.60;99.90;;;;;;5096217;28;20074;-64
2022/12/22 08:07:57;;;;;;;7.97;4.82;;;4.60;99.90;;;;;;5096609;28;20056;-65
2022/12/22 08:10:23;;;;;;;12.45;5.25;;;4.60;99.90;;;;;;5092143;28;20052;-64
2022/12/22 08:12:51;;;;;;;7.85;4.85;;;4.50;99.90;;;;;;5094603;28;20044;-65
2022/12/22 08:15:17;;;;;;;10.90;4.53;;;4.50;99.90;;;;;;5096717;28;20130;-63
2022/12/22 08:17:44;;;;;;;12.85;5.07;;;4.50;99.90;;;;;;5103255;28;20051;-65
2022/12/22 08:20:11;;;;;;;7.13;5.20;;;4.50;99.90;;;;;;5093792;28;20508;-64
2022/12/22 08:22:38;;;;;;;15.88;5.63;;;4.50;99.90;;;;;;5094557;28;20059;-63
2022/12/22 08:25:05;;;;;;;15.15;5.18;;;4.40;99.90;;;;;;5095566;28;20052;-64
2022/12/22 08:27:39;;;;;;;14.73;5.00;;;4.40;99.90;;;;;;5099691;28;20139;-64
2022/12/22 08:30:07;;;;;;;12.00;5.47;;;4.40;99.90;;;;;;5099448;28;20381;-64
2022/12/22 08:32:37;;;;;;;8.57;4.97;;;4.40;99.90;;;;;;5097140;28;20469;-63
2022/12/22 08:35:05;;;;;;;9.43;4.80;;;4.40;99.90;;;;;;5092313;28;20113;-65
2022/12/22 08:37:40;;;;;;;12.43;5.28;;;4.40;99.90;;;;;;5098081;28;20075;-64
2022/12/22 08:40:16;;;;;;;9.52;5.85;;;4.40;99.90;;;;;;5099093;28;20512;-63
2022/12/22 08:42:44;;;;;;;9.50;5.85;;;4.40;99.90;;;;;;5098261;28;20428;-65
2022/12/22 08:45:11;;;;;;;9.98;4.82;;;4.40;99.90;;;;;;5101133;28;20051;-64
2022/12/22 08:47:38;;;;;;;15.70;5.72;;;4.50;99.90;;;;;;5100152;28;20147;-64
2022/12/22 08:50:06;;;;;;;9.57;4.65;;;4.50;99.90;;;;;;5098766;28;20051;-63
2022/12/22 08:52:33;;;;;;;10.75;5.03;;;4.50;99.90;;;;;;5100940;28;20131;-63
2022/12/22 08:55:00;;;;;;;9.40;5.55;;;4.60;99.90;;;;;;5100527;28;20071;-64
2022/12/22 08:57:27;;;;;;;9.98;4.95;;;4.70;99.90;;;;;;5101706;28;20138;-64
2022/12/22 08:59:54;;;;;;;13.07;5.38;;;4.70;99.90;;;;;;5100794;27;20503;-64
2022/12/22 09:02:21;;;;;;;9.75;5.63;;;4.80;99.90;;;;;;5094617;28;20536;-66
2022/12/22 09:04:48;;;;;;;6.75;4.93;;;4.80;99.90;;;;;;5097560;28;20212;-64
2022/12/22 09:07:15;;;;;;;8.77;5.00;;;4.90;99.90;;;;;;5103126;28;20155;-64
2022/12/22 09:09:42;;;;;;;13.35;7.65;;;4.90;99.90;;;;;;5103322;28;20532;-65
2022/12/22 09:12:09;;;;;;;6.88;4.00;;;4.90;99.90;;;;;;5101371;28;20352;-64
2022/12/22 09:14:36;;;;;;;9.40;4.07;;;5.00;99.90;;;;;;5086077;28;20142;-65
2022/12/22 09:17:03;;;;;;;15.07;5.43;;;5.00;99.90;;;;;;5096592;28;20055;-65
2022/12/22 09:19:30;;;;;;;14.77;4.68;;;5.00;99.90;;;;;;5100154;28;20071;-63
2022/12/22 09:21:57;;;;;;;17.48;6.65;;;5.00;99.90;;;;;;5096886;28;20055;-63
2022/12/22 09:24:23;;;;;;;9.45;4.93;;;5.10;99.90;;;;;;5100691;28;20142;-64
2022/12/22 09:26:50;;;;;;;12.02;4.72;;;5.10;99.90;;;;;;5093214;28;20104;-65
2022/12/22 09:29:17;;;;;;;15.35;6.75;;;5.10;99.90;;;;;;5103090;28;20100;-63
2022/12/22 09:31:44;;;;;;;20.17;5.07;;;5.10;99.90;;;;;;5102677;28;20051;-64
2022/12/22 09:34:11;;;;;;;14.25;4.85;;;5.10;99.90;;;;;;5099592;28;20170;-64
2022/12/22 09:36:44;;;;;;;14.88;5.07;;;5.10;99.90;;;;;;5099025;28;20079;-65
2022/12/22 09:39:11;;;;;;;10.73;5.13;;;5.20;99.90;;;;;;5105541;28;20351;-65
2022/12/22 09:41:52;;;;;;;11.13;4.07;;;5.20;99.90;;;;;;5104665;28;20980;-65
2022/12/22 09:44:32;;;;;;;9.63;4.45;;;5.20;99.90;;;;;;5101672;28;20137;-64
2022/12/22 09:47:11;;;;;;;10.15;4.43;;;5.20;99.90;;;;;;5096734;28;20052;-64
2022/12/22 09:49:38;;;;;;;10.25;4.40;;;5.10;99.90;;;;;;5092034;28;20050;-64
2022/12/22 09:52:05;;;;;;;14.40;3.95;;;5.10;99.90;;;;;;5098094;28;20429;-64
2022/12/22 09:54:32;;;;;;;10.18;3.60;;;5.10;99.90;;;;;;5100639;28;20063;-64
2022/12/22 09:57:00;;;;;;;7.32;3.53;;;5.10;99.90;;;;;;5098780;28;20441;-65
2022/12/22 09:59:27;;;;;;;6.38;2.90;;;5.10;99.90;;;;;;5103051;28;20063;-64
2022/12/22 10:02:17;;;;;;;17.77;4.53;;;5.20;99.90;;;;;;5081398;28;20287;-63
2022/12/22 10:05:16;;;;;;;14.27;4.35;;;5.10;99.90;;;;;;5099980;28;20055;-65
2022/12/22 10:07:43;;;;;;;8.38;3.30;;;5.10;99.90;;;;;;5103290;28;20035;-64
2022/12/22 10:10:13;;;;;;;12.25;4.13;;;5.20;99.90;;;;;;5090803;28;20052;-64
2022/12/22 10:12:40;;;;;;;11.18;3.67;;;5.10;99.90;;;;;;5095353;28;20044;-64
2022/12/22 10:15:10;;;;;;;13.13;5.28;;;5.10;99.90;;;;;;5100904;28;20060;-65
2022/12/22 10:17:53;;;;;;;8.93;5.13;;;5.10;99.90;;;;;;5100744;28;20052;-64
2022/12/22 10:20:24;;;;;;;10.55;3.50;;;5.10;99.90;;;;;;5094472;28;20047;-64
2022/12/22 10:23:03;;;;;;;6.28;3.72;;;5.10;99.90;;;;;;5099085;28;20473;-64
2022/12/22 10:25:38;;;;;;;9.73;4.18;;;5.10;99.90;;;;;;5096525;28;20215;-64
2022/12/22 10:28:36;;;;;;;8.40;4.28;;;5.10;99.90;;;;;;5094034;28;20134;-65
2022/12/22 10:31:30;;;;;;;7.97;4.03;;;5.00;99.90;;;;;;5094758;28;20679;-64
2022/12/22 10:34:16;;;;;;;16.30;6.63;;;5.00;99.90;;;;;;5099876;28;20051;-64
2022/12/22 10:36:52;;;;;;;10.63;4.88;;;5.00;99.90;;;;;;5094931;28;20051;-65
2022/12/22 10:39:32;;;;;;;16.55;4.78;;;4.90;99.90;;;;;;5094684;28;20643;-64
2022/12/22 10:42:13;;;;;;;15.57;6.13;;;4.90;99.90;;;;;;5097194;28;20048;-65
2022/12/22 10:44:45;;;;;;;18.05;5.47;;;4.90;99.90;;;;;;5095961;28;20163;-64
2022/12/22 10:47:19;;;;;;;21.35;6.38;;;4.90;99.90;;;;;;5101114;28;20491;-65
2022/12/22 10:49:54;;;;;;;10.98;6.03;;;4.90;99.90;;;;;;5098370;28;20385;-65
2022/12/22 10:52:22;;;;;;;15.80;6.40;;;4.90;99.90;;;;;;5094998;28;20052;-66
2022/12/22 10:55:17;;;;;;;17.95;7.78;;;5.00;99.90;;;;;;5093667;28;20052;-65
2022/12/22 10:57:44;;;;;;;17.35;6.13;;;5.00;99.90;;;;;;5100394;28;20052;-65
2022/12/22 11:00:24;;;;;;;13.20;6.72;;;5.00;99.90;;;;;;5097202;28;20162;-65
2022/12/22 11:02:54;;;;;;;18.50;8.40;;;5.10;99.90;;;;;;5096317;28;20054;-64
2022/12/22 11:05:21;;;;;;;18.42;8.52;;;5.10;99.90;;;;;;5097524;28;20540;-65
2022/12/22 11:07:49;;;;;;;25.15;7.90;;;5.10;99.90;;;;;;5095034;28;20163;-63
2022/12/22 11:10:29;;;;;;;19.42;8.80;;;5.20;99.90;;;;;;5092415;28;20066;-63
2022/12/22 11:13:16;;;;;;;20.58;8.05;;;5.10;99.90;;;;;;5086445;28;20459;-64
2022/12/22 11:16:02;;;;;;;16.83;8.88;;;5.10;99.90;;;;;;5100821;28;20055;-63
2022/12/22 11:18:41;;;;;;;25.20;11.27;;;5.10;99.90;;;;;;5099309;28;20939;-64
2022/12/22 11:21:26;;;;;;;18.10;9.63;;;5.10;99.90;;;;;;5097616;28;20040;-66
2022/12/22 11:24:29;;;;;;;17.58;9.07;;;5.10;99.90;;;;;;5097229;28;20052;-64
2022/12/22 11:27:30;;;;;;;17.15;7.80;;;5.10;99.90;;;;;;5090515;28;21169;-65
2022/12/22 11:30:11;;;;;;;21.23;7.68;;;5.00;99.90;;;;;;5094732;28;20101;-62
2022/12/22 11:32:57;;;;;;;26.55;8.00;;;5.00;99.90;;;;;;5098345;28;20378;-63
2022/12/22 11:35:42;;;;;;;12.35;7.10;;;5.00;99.90;;;;;;5091338;28;20537;-62
2022/12/22 11:38:12;;;;;;;14.07;9.75;;;4.90;99.90;;;;;;5099230;28;20130;-62
2022/12/22 11:40:45;;;;;;;15.68;10.23;;;4.80;99.90;;;;;;5095142;28;20056;-62
2022/12/22 11:44:02;;;;;;;15.75;7.78;;;4.70;99.90;;;;;;5096792;28;20130;-62
2022/12/22 11:47:07;;;;;;;12.52;7.82;;;4.70;99.90;;;;;;5091131;28;20079;-63
2022/12/22 11:49:43;;;;;;;19.90;7.95;;;4.60;99.90;;;;;;5100694;28;20218;-62
2022/12/22 11:52:18;;;;;;;17.02;8.15;;;4.60;99.90;;;;;;5098247;28;20171;-61
2022/12/22 11:55:02;;;;;;;21.23;11.55;;;4.60;99.90;;;;;;5092135;28;20047;-65
2022/12/22 11:58:14;;;;;;;18.67;9.88;;;4.60;99.90;;;;;;5093048;28;20581;-61
2022/12/22 12:01:23;;;;;;;15.13;8.88;;;4.60;99.90;;;;;;5088330;28;20437;-61
2022/12/22 12:04:19;;;;;;;18.27;9.38;;;4.60;99.90;;;;;;5089088;28;20059;-62
2022/12/22 12:07:10;;;;;;;17.35;9.45;;;4.50;99.90;;;;;;5089499;28;20055;-62
2022/12/22 12:09:52;;;;;;;20.85;10.43;;;4.50;99.90;;;;;;5088987;28;20048;-62
2022/12/22 12:12:41;;;;;;;20.70;8.82;;;4.60;99.90;;;;;;5094815;28;20139;-61
2022/12/22 12:15:25;;;;;;;19.65;10.57;;;4.50;99.90;;;;;;5094905;28;20058;-61
2022/12/22 12:18:10;;;;;;;19.23;10.73;;;4.60;99.90;;;;;;5098153;28;20039;-63
2022/12/22 12:20:52;;;;;;;18.08;11.05;;;4.50;99.90;;;;;;5096109;28;20139;-62
2022/12/22 12:23:50;;;;;;;18.80;9.82;;;4.50;99.90;;;;;;5096669;28;20047;-61
2022/12/22 12:26:22;;;;;;;14.00;8.80;;;4.50;99.90;;;;;;5097086;28;20066;-64
2022/12/22 12:29:04;;;;;;;18.88;9.43;;;4.50;99.90;;;;;;5100181;28;20086;-62
2022/12/22 12:31:40;;;;;;;25.52;10.10;;;4.50;99.90;;;;;;5096609;28;20573;-62
2022/12/22 12:34:13;;;;;;;18.95;9.93;;;4.50;99.90;;;;;;5098048;28;20052;-63
2022/12/22 12:37:05;;;;;;;19.77;9.85;;;4.50;99.90;;;;;;5097269;28;20124;-64
2022/12/22 12:39:56;;;;;;;19.95;10.07;;;4.50;99.90;;;;;;5079406;28;20175;-63
2022/12/22 12:42:33;;;;;;;19.80;10.38;;;4.50;99.90;;;;;;5098974;28;20661;-64
2022/12/22 12:45:01;;;;;;;16.60;9.05;;;4.50;99.90;;;;;;5095204;28;20222;-62
2022/12/22 12:47:35;;;;;;;17.80;10.43;;;4.50;99.90;;;;;;5102528;28;20051;-63
2022/12/22 12:50:13;;;;;;;16.10;9.20;;;4.50;99.90;;;;;;5096781;28;20459;-63
2022/12/22 12:52:42;;;;;;;17.63;10.65;;;4.50;99.90;;;;;;5095435;28;20052;-62
2022/12/22 12:55:33;;;;;;;17.60;9.48;;;4.50;99.90;;;;;;5097740;28;20157;-61
2022/12/22 12:58:02;;;;;;;17.50;9.85;;;4.50;99.90;;;;;;5088446;28;20039;-63
2022/12/22 13:00:33;;;;;;;18.80;11.32;;;4.50;99.90;;;;;;5099971;28;20105;-62
2022/12/22 13:03:11;;;;;;;19.63;10.27;;;4.50;99.90;;;;;;5098404;28;20587;-61
2022/12/22 13:06:01;;;;;;;13.77;8.90;;;4.50;99.90;;;;;;5102197;28;20074;-62
2022/12/22 13:08:30;;;;;;;20.67;9.82;;;4.50;99.90;;;;;;5103945;28;20513;-64
2022/12/22 13:10:57;;;;;;;19.92;10.25;;;4.40;99.90;;;;;;5099927;28;20438;-61
2022/12/22 13:13:24;;;;;;;19.70;9.57;;;4.50;99.90;;;;;;5098129;28;20078;-63
2022/12/22 13:16:03;;;;;;;24.48;11.40;;;4.50;99.90;;;;;;5100180;28;20075;-63
2022/12/22 13:18:33;;;;;;;15.07;9.40;;;4.40;99.90;;;;;;5094724;28;20047;-62
2022/12/22 13:21:14;;;;;;;18.58;10.73;;;4.40;99.90;;;;;;5092123;28;20401;-62
2022/12/22 13:24:02;;;;;;;19.02;11.35;;;4.40;99.90;;;;;;5097594;28;20051;-62
2022/12/22 13:26:53;;;;;;;15.43;9.00;;;4.40;99.90;;;;;;5099397;28;20040;-63
2022/12/22 13:29:34;;;;;;;21.98;11.70;;;4.40;99.90;;;;;;5102207;28;20046;-64
2022/12/22 13:32:14;;;;;;;16.40;10.05;;;4.30;99.90;;;;;;5096243;28;20104;-62
2022/12/22 13:34:51;;;;;;;18.98;13.20;;;4.30;99.90;;;;;;5090569;28;20146;-62
2022/12/22 13:37:45;;;;;;;24.45;13.25;;;4.30;99.90;;;;;;5102443;27;20818;-62
2022/12/22 13:40:24;;;;;;;19.40;11.95;;;4.30;99.90;;;;;;5097441;28;20061;-62
2022/12/22 13:42:56;;;;;;;25.17;13.40;;;4.30;99.90;;;;;;5094123;28;20124;-63
2022/12/22 13:45:29;;;;;;;23.60;14.13;;;4.30;99.90;;;;;;5096628;28;20043;-62
2022/12/22 13:47:57;;;;;;;29.95;12.93;;;4.30;99.90;;;;;;5096250;28;20052;-63
2022/12/22 13:50:35;;;;;;;25.85;11.80;;;4.30;99.90;;;;;;5095678;28;20044;-62
2022/12/22 13:53:06;;;;;;;21.75;11.85;;;4.30;99.90;;;;;;5099238;28;20113;-63
2022/12/22 13:55:35;;;;;;;19.38;11.23;;;4.30;99.90;;;;;;5100481;28;20062;-62
2022/12/22 13:58:25;;;;;;;19.50;10.38;;;4.30;99.90;;;;;;5098866;28;20082;-62
2022/12/22 14:01:10;;;;;;;17.42;12.15;;;4.30;99.90;;;;;;5094565;28;20520;-63
2022/12/22 14:03:38;;;;;;;17.35;9.75;;;4.30;99.90;;;;;;5096661;28;20044;-63
2022/12/22 14:06:28;;;;;;;20.48;11.55;;;4.30;99.90;;;;;;5100114;28;20048;-63
2022/12/22 14:09:18;;;;;;;20.92;11.77;;;4.30;99.90;;;;;;5082518;28;20419;-63
2022/12/22 14:12:11;;;;;;;18.27;12.77;;;4.30;99.90;;;;;;5098129;27;20076;-64
2022/12/22 14:14:44;;;;;;;23.75;12.25;;;4.30;99.90;;;;;;5097716;28;20097;-63
2022/12/22 14:17:34;;;;;;;21.25;12.95;;;4.30;99.90;;;;;;5101430;28;20051;-62
2022/12/22 14:20:15;;;;;;;24.77;12.30;;;4.30;99.90;;;;;;5103897;28;20052;-62
2022/12/22 14:22:48;;;;;;;30.73;14.48;;;4.30;99.90;;;;;;5094728;27;20373;-64
2022/12/22 14:25:22;;;;;;;19.50;12.52;;;4.30;99.90;;;;;;5098096;28;20363;-62
2022/12/22 14:27:53;;;;;;;20.85;12.52;;;4.30;99.90;;;;;;5103036;28;20039;-64
2022/12/22 14:30:21;;;;;;;;;;;4.30;99.90;;;;;;5096776;28;20162;-64
2022/12/22 14:32:51;;;;;;;30.98;17.65;;;4.30;99.90;;;;;;5093046;28;20310;-62
2022/12/22 14:35:21;;;;;;;25.95;13.63;;;4.40;99.90;;;;;;5096995;28;20083;-62
2022/12/22 14:38:06;;;;;;;27.88;15.13;;;4.40;99.90;;;;;;5098808;28;20079;-63
2022/12/22 14:40:38;;;;;;;31.05;15.30;;;4.40;99.90;;;;;;5101328;28;20075;-62
2022/12/22 14:43:13;;;;;;;22.27;15.02;;;4.40;99.90;;;;;;5100897;28;20054;-62
2022/12/22 14:45:40;;;;;;;30.17;14.80;;;4.40;99.90;;;;;;5095904;28;20051;-62
2022/12/22 14:48:08;;;;;;;29.52;17.08;;;4.40;99.90;;;;;;5095791;28;20043;-62
2022/12/22 14:50:35;;;;;;;31.52;20.17;;;4.40;99.90;;;;;;5101712;28;20088;-62
2022/12/22 14:53:04;;;;;;;28.90;15.45;;;4.40;99.90;;;;;;5097278;28;20057;-62
2022/12/22 14:55:36;;;;;;;28.15;16.30;;;4.40;99.90;;;;;;5093890;28;20052;-62
2022/12/22 14:58:09;;;;;;;42.60;19.88;;;4.40;99.90;;;;;;5092104;28;20134;-61
2022/12/22 15:00:40;;;;;;;30.50;17.70;;;4.40;99.90;;;;;;5074716;28;20123;-64
2022/12/22 15:03:33;;;;;;;35.05;16.95;;;4.40;99.90;;;;;;5094741;28;20636;-62
2022/12/22 15:06:39;;;;;;;30.08;18.40;;;4.40;99.90;;;;;;5102479;28;20065;-69
2022/12/22 15:09:12;;;;;;;36.95;19.58;;;4.40;99.90;;;;;;5095929;28;20070;-62
2022/12/22 15:11:44;;;;;;;32.80;18.13;;;4.40;99.90;;;;;;5095588;28;20729;-62
2022/12/22 15:14:15;;;;;;;33.17;18.23;;;4.40;99.90;;;;;;5098928;28;20040;-62
2022/12/22 15:16:43;;;;;;;29.92;17.50;;;4.50;99.90;;;;;;5099478;28;20229;-62
2022/12/22 15:19:15;;;;;;;29.40;18.90;;;4.50;99.90;;;;;;5088226;28;20466;-61
2022/12/22 15:21:43;;;;;;;25.95;15.38;;;4.40;99.90;;;;;;5099319;28;20484;-61
2022/12/22 15:24:11;;;;;;;27.85;16.05;;;4.40;99.90;;;;;;5095761;28;20082;-63
2022/12/22 15:26:38;;;;;;;30.92;17.02;;;4.50;99.90;;;;;;5089620;28;20104;-61
2022/12/22 15:29:05;;;;;;;26.83;16.90;;;4.50;99.90;;;;;;5099253;28;20040;-61
2022/12/22 15:31:33;;;;;;;28.73;15.50;;;4.50;99.90;;;;;;5099652;28;20043;-62
2022/12/22 15:34:02;;;;;;;35.15;18.73;;;4.50;99.90;;;;;;5095295;28;20056;-62
2022/12/22 15:36:29;;;;;;;25.67;15.70;;;4.50;99.90;;;;;;5098787;28;20047;-62
2022/12/22 15:38:56;;;;;;;26.40;15.70;;;4.50;99.90;;;;;;5090761;28;20569;-63
2022/12/22 15:41:23;;;;;;;24.75;16.20;;;4.50;99.90;;;;;;5096413;28;20170;-62
2022/12/22 15:43:50;;;;;;;31.73;18.33;;;4.40;99.90;;;;;;5101393;28;20058;-62
2022/12/22 15:46:23;;;;;;;28.65;16.67;;;4.50;99.90;;;;;;5097383;28;20044;-61
2022/12/22 15:48:51;;;;;;;25.65;15.35;;;4.50;99.90;;;;;;5093321;28;20048;-61
2022/12/22 15:51:29;;;;;;;29.45;17.27;;;4.50;99.90;;;;;;5095368;28;20180;-63
2022/12/22 15:53:58;;;;;;;28.70;16.40;;;4.50;99.90;;;;;;5094523;28;20080;-61
2022/12/22 15:56:28;;;;;;;29.10;16.70;;;4.50;99.90;;;;;;5094068;28;20180;-62
2022/12/22 15:58:56;;;;;;;26.58;15.90;;;4.60;99.90;;;;;;5105516;28;20050;-62
2022/12/22 16:01:23;;;;;;;26.55;18.55;;;4.60;99.90;;;;;;5103603;28;20066;-62
2022/12/22 16:03:50;;;;;;;31.25;16.15;;;4.60;99.90;;;;;;5105548;28;20121;-62
2022/12/22 16:06:18;;;;;;;26.30;16.45;;;4.60;99.90;;;;;;5101311;28;20222;-61
2022/12/22 16:08:51;;;;;;;29.20;17.42;;;4.60;99.90;;;;;;5101213;28;20097;-62
2022/12/22 16:11:18;;;;;;;27.55;16.80;;;4.70;99.90;;;;;;5102224;28;20054;-64
2022/12/22 16:13:46;;;;;;;29.63;16.55;;;4.70;99.90;;;;;;5108857;28;20054;-62
2022/12/22 16:16:13;;;;;;;29.05;17.15;;;4.70;99.90;;;;;;5105486;28;20127;-61
2022/12/22 16:18:40;;;;;;;34.47;18.23;;;4.70;99.90;;;;;;5101077;28;20055;-62
2022/12/22 16:21:14;;;;;;;29.52;17.20;;;4.70;99.90;;;;;;5099805;28;20173;-62
2022/12/22 16:23:44;;;;;;;26.65;17.85;;;4.80;99.90;;;;;;5101449;28;20047;-62
2022/12/22 16:26:20;;;;;;;32.78;19.70;;;4.80;99.90;;;;;;5104722;28;20155;-62
2022/12/22 16:28:47;;;;;;;29.48;19.10;;;4.80;99.90;;;;;;5103346;28;20097;-63
2022/12/22 16:31:20;;;;;;;35.95;19.63;;;4.80;99.90;;;;;;5108659;28;20074;-63
2022/12/22 16:33:48;;;;;;;31.52;20.60;;;4.80;99.90;;;;;;5106979;28;20354;-62
2022/12/22 16:36:15;;;;;;;32.45;18.65;;;4.70;99.90;;;;;;5102751;28;20079;-62
2022/12/22 16:38:44;;;;;;;24.33;15.48;;;4.70;99.90;;;;;;5100595;28;20044;-63
2022/12/22 16:41:23;;;;;;;29.60;17.02;;;4.70;99.90;;;;;;5099876;28;20127;-62
2022/12/22 16:43:55;;;;;;;29.65;15.65;;;4.60;99.90;;;;;;5098634;28;20056;-64
2022/12/22 16:46:34;;;;;;;25.65;16.85;;;4.50;99.90;;;;;;5105432;28;20119;-62
2022/12/22 16:49:05;;;;;;;27.38;16.88;;;4.50;99.90;;;;;;5100876;28;20040;-62
2022/12/22 16:51:34;;;;;;;31.05;17.75;;;4.50;99.90;;;;;;5096979;28;20193;-61